sensor_id;sensor_type;location;lat;lon;timestamp;temperature;humidity
2955;DHT22;1487;51.470;6.938;2022-08-20T00:02:20;20.20;99.90
2955;DHT22;1487;51.470;6.938;2022-08-20T00:04:47;20.20;99.90
2955;DHT22;1487;51.470;6.938;2022-08-20T00:07:14;20.20;99.90
2955;DHT22;1487;51.470;6.938;2022-08-20T00:09:41;20.10;99.90
2955;DHT22;1487;51.470;6.938;2022-08-20T00:12:10;20.10;99.90
2955;DHT22;1487;51.470;6.938;2022-08-20T00:14:38;20.10;99.90
2955;DHT22;1487;51.470;6.938;2022-08-20T00:17:05;20.00;99.90
2955;DHT22;1487;51.470;6.938;2022-08-20T00:19:33;19.90;99.90
2955;DHT22;1487;51.470;6.938;2022-08-20T00:22:00;19.90;99.90
2955;DHT22;1487;51.470;6.938;2022-08-20T00:24:27;19.90;99.90
2955;DHT22;1487;51.470;6.938;2022-08-20T00:26:54;19.90;99.90
2955;DHT22;1487;51.470;6.938;2022-08-20T00:29:21;19.90;99.90
2955;DHT22;1487;51.470;6.938;2022-08-20T00:31:48;19.90;99.90
2955;DHT22;1487;51.470;6.938;2022-08-20T00:34:15;19.90;99.90
2955;DHT22;1487;51.470;6.938;2022-08-20T00:36:43;19.80;99.90
2955;DHT22;1487;51.470;6.938;2022-08-20T00:39:10;19.80;99.90
2955;DHT22;1487;51.470;6.938;2022-08-20T00:41:37;19.80;99.90
2955;DHT22;1487;51.470;6.938;2022-08-20T00:44:08;19.80;99.90
2955;DHT22;1487;51.470;6.938;2022-08-20T00:46:36;19.80;99.90
2955;DHT22;1487;51.470;6.938;2022-08-20T00:49:05;19.70;99.90
2955;DHT22;1487;51.470;6.938;2022-08-20T00:51:36;19.80;99.90
2955;DHT22;1487;51.470;6.938;2022-08-20T00:54:10;19.80;99.90
2955;DHT22;1487;51.470;6.938;2022-08-20T00:56:41;19.80;99.90
2955;DHT22;1487;51.470;6.938;2022-08-20T00:59:13;19.70;99.90
2955;DHT22;1487;51.470;6.938;2022-08-20T01:01:42;19.70;99.90
2955;DHT22;1487;51.470;6.938;2022-08-20T01:04:09;19.70;99.90
2955;DHT22;1487;51.470;6.938;2022-08-20T01:06:36;19.60;99.90
2955;DHT22;1487;51.470;6.938;2022-08-20T01:09:03;19.60;99.90
2955;DHT22;1487;51.470;6.938;2022-08-20T01:11:33;19.60;99.90
2955;DHT22;1487;51.470;6.938;2022-08-20T01:14:01;19.60;99.90
2955;DHT22;1487;51.470;6.938;2022-08-20T01:16:40;19.60;99.90
2955;DHT22;1487;51.470;6.938;2022-08-20T01:19:11;19.60;99.90
2955;DHT22;1487;51.470;6.938;2022-08-20T01:21:40;19.60;99.90
2955;DHT22;1487;51.470;6.938;2022-08-20T01:24:13;19.50;99.90
2955;DHT22;1487;51.470;6.938;2022-08-20T01:26:43;19.50;99.90
2955;DHT22;1487;51.470;6.938;2022-08-20T01:29:14;19.50;99.90
2955;DHT22;1487;51.470;6.938;2022-08-20T01:31:41;19.50;99.90
2955;DHT22;1487;51.470;6.938;2022-08-20T01:34:11;19.50;99.90
2955;DHT22;1487;51.470;6.938;2022-08-20T01:36:41;19.50;99.90
2955;DHT22;1487;51.470;6.938;2022-08-20T01:39:11;19.50;99.90
2955;DHT22;1487;51.470;6.938;2022-08-20T01:41:56;19.50;99.90
2955;DHT22;1487;51.470;6.938;2022-08-20T01:44:25;19.50;99.90
2955;DHT22;1487;51.470;6.938;2022-08-20T01:46:53;19.40;99.90
2955;DHT22;1487;51.470;6.938;2022-08-20T01:49:24;19.40;99.90
2955;DHT22;1487;51.470;6.938;2022-08-20T01:51:53;19.40;99.90
2955;DHT22;1487;51.470;6.938;2022-08-20T01:54:21;19.30;99.90
2955;DHT22;1487;51.470;6.938;2022-08-20T01:56:58;19.30;99.90
2955;DHT22;1487;51.470;6.938;2022-08-20T01:59:27;19.20;99.90
2955;DHT22;1487;51.470;6.938;2022-08-20T02:01:54;19.30;99.90
2955;DHT22;1487;51.470;6.938;2022-08-20T02:04:22;19.30;99.90
2955;DHT22;1487;51.470;6.938;2022-08-20T02:06:52;19.20;99.90
2955;DHT22;1487;51.470;6.938;2022-08-20T02:09:21;19.20;99.90
2955;DHT22;1487;51.470;6.938;2022-08-20T02:11:48;19.20;99.90
2955;DHT22;1487;51.470;6.938;2022-08-20T02:14:16;19.20;99.90
2955;DHT22;1487;51.470;6.938;2022-08-20T02:16:44;19.20;99.90
2955;DHT22;1487;51.470;6.938;2022-08-20T02:19:15;19.30;99.90
2955;DHT22;1487;51.470;6.938;2022-08-20T02:21:47;19.30;99.90
2955;DHT22;1487;51.470;6.938;2022-08-20T02:24:14;19.20;99.90
2955;DHT22;1487;51.470;6.938;2022-08-20T02:26:42;19.20;99.90
2955;DHT22;1487;51.470;6.938;2022-08-20T02:29:11;19.30;99.90
2955;DHT22;1487;51.470;6.938;2022-08-20T02:31:40;19.20;99.90
2955;DHT22;1487;51.470;6.938;2022-08-20T02:34:10;19.20;99.90
2955;DHT22;1487;51.470;6.938;2022-08-20T02:36:37;19.20;99.90
2955;DHT22;1487;51.470;6.938;2022-08-20T02:39:06;19.20;99.90
2955;DHT22;1487;51.470;6.938;2022-08-20T02:41:33;19.20;99.90
2955;DHT22;1487;51.470;6.938;2022-08-20T02:44:00;19.10;99.90
2955;DHT22;1487;51.470;6.938;2022-08-20T02:46:27;19.10;99.90
2955;DHT22;1487;51.470;6.938;2022-08-20T02:48:55;19.20;99.90
2955;DHT22;1487;51.470;6.938;2022-08-20T02:51:22;19.20;99.90
2955;DHT22;1487;51.470;6.938;2022-08-20T02:53:50;19.20;99.90
2955;DHT22;1487;51.470;6.938;2022-08-20T02:56:17;19.20;99.90
2955;DHT22;1487;51.470;6.938;2022-08-20T02:58:44;19.20;99.90
2955;DHT22;1487;51.470;6.938;2022-08-20T03:01:14;19.10;99.90
2955;DHT22;1487;51.470;6.938;2022-08-20T03:03:42;19.10;99.90
2955;DHT22;1487;51.470;6.938;2022-08-20T03:06:11;19.00;99.90
2955;DHT22;1487;51.470;6.938;2022-08-20T03:08:39;19.00;99.90
2955;DHT22;1487;51.470;6.938;2022-08-20T03:11:06;19.00;99.90
2955;DHT22;1487;51.470;6.938;2022-08-20T03:13:33;19.10;99.90
2955;DHT22;1487;51.470;6.938;2022-08-20T03:16:02;19.20;99.90
2955;DHT22;1487;51.470;6.938;2022-08-20T03:18:31;19.10;99.90
2955;DHT22;1487;51.470;6.938;2022-08-20T03:20:59;19.10;99.90
2955;DHT22;1487;51.470;6.938;2022-08-20T03:23:27;19.10;99.90
2955;DHT22;1487;51.470;6.938;2022-08-20T03:25:54;19.10;99.90
2955;DHT22;1487;51.470;6.938;2022-08-20T03:28:21;19.10;99.90
2955;DHT22;1487;51.470;6.938;2022-08-20T03:30:49;19.10;99.90
2955;DHT22;1487;51.470;6.938;2022-08-20T03:33:18;19.00;99.90
2955;DHT22;1487;51.470;6.938;2022-08-20T03:35:45;19.10;99.90
2955;DHT22;1487;51.470;6.938;2022-08-20T03:38:14;19.20;99.90
2955;DHT22;1487;51.470;6.938;2022-08-20T03:40:43;19.30;99.90
2955;DHT22;1487;51.470;6.938;2022-08-20T03:43:11;19.30;99.90
2955;DHT22;1487;51.470;6.938;2022-08-20T03:45:40;19.20;99.90
2955;DHT22;1487;51.470;6.938;2022-08-20T03:48:09;19.20;99.90
2955;DHT22;1487;51.470;6.938;2022-08-20T03:50:36;19.30;99.90
2955;DHT22;1487;51.470;6.938;2022-08-20T03:53:07;19.30;99.90
2955;DHT22;1487;51.470;6.938;2022-08-20T03:55:34;19.30;99.90
2955;DHT22;1487;51.470;6.938;2022-08-20T03:58:05;19.30;99.90
2955;DHT22;1487;51.470;6.938;2022-08-20T04:00:34;19.10;99.90
2955;DHT22;1487;51.470;6.938;2022-08-20T04:03:01;19.10;99.90
2955;DHT22;1487;51.470;6.938;2022-08-20T04:05:30;19.00;99.90
2955;DHT22;1487;51.470;6.938;2022-08-20T04:07:58;19.00;99.90
2955;DHT22;1487;51.470;6.938;2022-08-20T04:10:26;19.10;99.90
2955;DHT22;1487;51.470;6.938;2022-08-20T04:12:52;19.20;99.90
2955;DHT22;1487;51.470;6.938;2022-08-20T04:15:21;19.20;99.90
2955;DHT22;1487;51.470;6.938;2022-08-20T04:17:49;19.20;99.90
2955;DHT22;1487;51.470;6.938;2022-08-20T04:20:20;19.20;99.90
2955;DHT22;1487;51.470;6.938;2022-08-20T04:22:47;19.20;99.90
2955;DHT22;1487;51.470;6.938;2022-08-20T04:25:14;19.20;99.90
2955;DHT22;1487;51.470;6.938;2022-08-20T04:27:41;19.30;99.90
2955;DHT22;1487;51.470;6.938;2022-08-20T04:30:11;19.30;99.90
2955;DHT22;1487;51.470;6.938;2022-08-20T04:32:40;19.30;99.90
2955;DHT22;1487;51.470;6.938;2022-08-20T04:35:09;19.30;99.90
2955;DHT22;1487;51.470;6.938;2022-08-20T04:37:39;19.40;99.90
2955;DHT22;1487;51.470;6.938;2022-08-20T04:40:09;19.30;99.90
2955;DHT22;1487;51.470;6.938;2022-08-20T04:42:53;19.30;99.90
2955;DHT22;1487;51.470;6.938;2022-08-20T04:45:20;19.30;99.90
2955;DHT22;1487;51.470;6.938;2022-08-20T04:47:49;19.40;99.90
2955;DHT22;1487;51.470;6.938;2022-08-20T04:50:17;19.40;99.90
2955;DHT22;1487;51.470;6.938;2022-08-20T04:52:44;19.40;99.90
2955;DHT22;1487;51.470;6.938;2022-08-20T04:55:12;19.40;99.90
2955;DHT22;1487;51.470;6.938;2022-08-20T04:57:39;19.40;99.90
2955;DHT22;1487;51.470;6.938;2022-08-20T05:00:10;19.40;99.90
2955;DHT22;1487;51.470;6.938;2022-08-20T05:02:38;19.40;99.90
2955;DHT22;1487;51.470;6.938;2022-08-20T05:05:07;19.40;99.90
2955;DHT22;1487;51.470;6.938;2022-08-20T05:07:38;19.40;99.90
2955;DHT22;1487;51.470;6.938;2022-08-20T05:10:06;19.40;99.90
2955;DHT22;1487;51.470;6.938;2022-08-20T05:12:33;19.40;99.90
2955;DHT22;1487;51.470;6.938;2022-08-20T05:15:00;19.30;99.90
2955;DHT22;1487;51.470;6.938;2022-08-20T05:17:27;19.40;99.90
2955;DHT22;1487;51.470;6.938;2022-08-20T05:19:53;19.40;99.90
2955;DHT22;1487;51.470;6.938;2022-08-20T05:22:23;19.40;99.90
2955;DHT22;1487;51.470;6.938;2022-08-20T05:24:50;19.40;99.90
2955;DHT22;1487;51.470;6.938;2022-08-20T05:27:17;19.40;99.90
2955;DHT22;1487;51.470;6.938;2022-08-20T05:29:44;19.40;99.90
2955;DHT22;1487;51.470;6.938;2022-08-20T05:32:11;19.40;99.90
2955;DHT22;1487;51.470;6.938;2022-08-20T05:34:38;19.30;99.90
2955;DHT22;1487;51.470;6.938;2022-08-20T05:37:05;19.30;99.90
2955;DHT22;1487;51.470;6.938;2022-08-20T05:39:33;19.20;99.90
2955;DHT22;1487;51.470;6.938;2022-08-20T05:42:00;19.30;99.90
2955;DHT22;1487;51.470;6.938;2022-08-20T05:44:27;19.30;99.90
2955;DHT22;1487;51.470;6.938;2022-08-20T05:46:53;19.40;99.90
2955;DHT22;1487;51.470;6.938;2022-08-20T05:49:20;19.50;99.90
2955;DHT22;1487;51.470;6.938;2022-08-20T05:51:48;19.50;99.90
2955;DHT22;1487;51.470;6.938;2022-08-20T05:54:15;19.50;99.90
2955;DHT22;1487;51.470;6.938;2022-08-20T05:56:44;19.50;99.90
2955;DHT22;1487;51.470;6.938;2022-08-20T05:59:10;19.70;99.90
2955;DHT22;1487;51.470;6.938;2022-08-20T06:01:39;19.70;99.90
2955;DHT22;1487;51.470;6.938;2022-08-20T06:04:07;19.90;99.90
2955;DHT22;1487;51.470;6.938;2022-08-20T06:07:04;19.90;99.90
2955;DHT22;1487;51.470;6.938;2022-08-20T06:09:31;19.90;99.90
2955;DHT22;1487;51.470;6.938;2022-08-20T06:12:03;19.90;99.90
2955;DHT22;1487;51.470;6.938;2022-08-20T06:14:31;19.90;99.90
2955;DHT22;1487;51.470;6.938;2022-08-20T06:17:05;19.80;99.90
2955;DHT22;1487;51.470;6.938;2022-08-20T06:19:33;19.80;99.90
2955;DHT22;1487;51.470;6.938;2022-08-20T06:22:01;19.90;99.90
2955;DHT22;1487;51.470;6.938;2022-08-20T06:24:28;19.90;99.90
2955;DHT22;1487;51.470;6.938;2022-08-20T06:26:55;19.90;99.90
2955;DHT22;1487;51.470;6.938;2022-08-20T06:29:24;19.90;99.90
2955;DHT22;1487;51.470;6.938;2022-08-20T06:31:51;19.90;99.90
2955;DHT22;1487;51.470;6.938;2022-08-20T06:34:18;19.90;99.90
2955;DHT22;1487;51.470;6.938;2022-08-20T06:36:45;19.90;99.90
2955;DHT22;1487;51.470;6.938;2022-08-20T06:39:12;19.80;99.90
2955;DHT22;1487;51.470;6.938;2022-08-20T06:41:39;19.80;99.90
2955;DHT22;1487;51.470;6.938;2022-08-20T06:44:06;19.90;99.90
2955;DHT22;1487;51.470;6.938;2022-08-20T06:46:35;19.90;99.90
2955;DHT22;1487;51.470;6.938;2022-08-20T06:49:03;20.00;99.90
2955;DHT22;1487;51.470;6.938;2022-08-20T06:51:30;20.10;99.90
2955;DHT22;1487;51.470;6.938;2022-08-20T06:53:59;20.10;99.90
2955;DHT22;1487;51.470;6.938;2022-08-20T06:56:25;20.10;99.90
2955;DHT22;1487;51.470;6.938;2022-08-20T06:58:52;20.30;99.90
2955;DHT22;1487;51.470;6.938;2022-08-20T07:01:19;20.50;99.90
2955;DHT22;1487;51.470;6.938;2022-08-20T07:03:48;20.60;99.90
2955;DHT22;1487;51.470;6.938;2022-08-20T07:06:15;20.70;99.90
2955;DHT22;1487;51.470;6.938;2022-08-20T07:08:42;20.50;99.90
2955;DHT22;1487;51.470;6.938;2022-08-20T07:11:10;20.50;99.90
2955;DHT22;1487;51.470;6.938;2022-08-20T07:13:37;20.50;99.90
2955;DHT22;1487;51.470;6.938;2022-08-20T07:16:06;20.60;99.90
2955;DHT22;1487;51.470;6.938;2022-08-20T07:18:32;20.60;99.90
2955;DHT22;1487;51.470;6.938;2022-08-20T07:21:01;20.60;99.90
2955;DHT22;1487;51.470;6.938;2022-08-20T07:23:28;20.60;99.90
2955;DHT22;1487;51.470;6.938;2022-08-20T07:25:55;20.40;99.90
2955;DHT22;1487;51.470;6.938;2022-08-20T07:28:24;20.50;99.90
2955;DHT22;1487;51.470;6.938;2022-08-20T07:30:53;20.50;99.90
2955;DHT22;1487;51.470;6.938;2022-08-20T07:33:38;20.70;99.90
2955;DHT22;1487;51.470;6.938;2022-08-20T07:36:07;20.80;99.90
2955;DHT22;1487;51.470;6.938;2022-08-20T07:38:35;20.90;99.90
2955;DHT22;1487;51.470;6.938;2022-08-20T07:41:04;21.10;99.90
2955;DHT22;1487;51.470;6.938;2022-08-20T07:43:32;21.30;99.90
2955;DHT22;1487;51.470;6.938;2022-08-20T07:46:01;21.40;99.90
2955;DHT22;1487;51.470;6.938;2022-08-20T07:48:33;21.60;99.90
2955;DHT22;1487;51.470;6.938;2022-08-20T07:51:02;21.90;99.90
2955;DHT22;1487;51.470;6.938;2022-08-20T07:53:31;22.30;99.90
2955;DHT22;1487;51.470;6.938;2022-08-20T07:55:59;22.50;99.90
2955;DHT22;1487;51.470;6.938;2022-08-20T07:58:27;22.80;99.90
2955;DHT22;1487;51.470;6.938;2022-08-20T08:00:54;23.20;99.90
2955;DHT22;1487;51.470;6.938;2022-08-20T08:03:21;23.60;99.90
2955;DHT22;1487;51.470;6.938;2022-08-20T08:05:49;23.60;99.90
2955;DHT22;1487;51.470;6.938;2022-08-20T08:08:20;23.50;99.90
2955;DHT22;1487;51.470;6.938;2022-08-20T08:10:51;23.20;99.90
2955;DHT22;1487;51.470;6.938;2022-08-20T08:13:20;23.00;99.90
2955;DHT22;1487;51.470;6.938;2022-08-20T08:15:51;23.00;99.90
2955;DHT22;1487;51.470;6.938;2022-08-20T08:18:21;22.90;99.90
2955;DHT22;1487;51.470;6.938;2022-08-20T08:20:50;22.70;99.90
2955;DHT22;1487;51.470;6.938;2022-08-20T08:23:19;22.60;99.90
2955;DHT22;1487;51.470;6.938;2022-08-20T08:25:48;23.00;99.90
2955;DHT22;1487;51.470;6.938;2022-08-20T08:28:16;24.30;99.90
2955;DHT22;1487;51.470;6.938;2022-08-20T08:30:44;26.10;99.90
2955;DHT22;1487;51.470;6.938;2022-08-20T08:33:17;27.60;99.90
2955;DHT22;1487;51.470;6.938;2022-08-20T08:35:54;27.80;99.90
2955;DHT22;1487;51.470;6.938;2022-08-20T08:38:21;27.70;99.90
2955;DHT22;1487;51.470;6.938;2022-08-20T08:40:50;27.50;99.90
2955;DHT22;1487;51.470;6.938;2022-08-20T08:43:19;27.10;99.90
2955;DHT22;1487;51.470;6.938;2022-08-20T08:45:55;26.20;99.90
2955;DHT22;1487;51.470;6.938;2022-08-20T08:48:29;25.10;99.90
2955;DHT22;1487;51.470;6.938;2022-08-20T08:50:57;24.30;99.90
2955;DHT22;1487;51.470;6.938;2022-08-20T08:53:29;23.60;99.90
2955;DHT22;1487;51.470;6.938;2022-08-20T08:55:58;23.10;99.90
2955;DHT22;1487;51.470;6.938;2022-08-20T08:58:25;22.70;99.90
2955;DHT22;1487;51.470;6.938;2022-08-20T09:00:52;22.80;99.90
2955;DHT22;1487;51.470;6.938;2022-08-20T09:03:24;23.40;99.90
2955;DHT22;1487;51.470;6.938;2022-08-20T09:05:55;24.20;99.90
2955;DHT22;1487;51.470;6.938;2022-08-20T09:08:25;24.70;99.90
2955;DHT22;1487;51.470;6.938;2022-08-20T09:10:52;25.00;99.90
2955;DHT22;1487;51.470;6.938;2022-08-20T09:13:20;25.30;99.90
2955;DHT22;1487;51.470;6.938;2022-08-20T09:15:47;25.70;99.90
2955;DHT22;1487;51.470;6.938;2022-08-20T09:18:13;25.60;99.90
2955;DHT22;1487;51.470;6.938;2022-08-20T09:20:40;25.60;99.90
2955;DHT22;1487;51.470;6.938;2022-08-20T09:23:07;25.80;99.90
2955;DHT22;1487;51.470;6.938;2022-08-20T09:25:34;25.60;99.90
2955;DHT22;1487;51.470;6.938;2022-08-20T09:28:01;25.00;99.90
2955;DHT22;1487;51.470;6.938;2022-08-20T09:30:29;24.60;99.90
2955;DHT22;1487;51.470;6.938;2022-08-20T09:32:58;24.40;99.90
2955;DHT22;1487;51.470;6.938;2022-08-20T09:35:25;24.50;99.90
2955;DHT22;1487;51.470;6.938;2022-08-20T09:37:52;24.90;99.90
2955;DHT22;1487;51.470;6.938;2022-08-20T09:40:19;25.00;99.90
2955;DHT22;1487;51.470;6.938;2022-08-20T09:42:46;25.10;99.90
2955;DHT22;1487;51.470;6.938;2022-08-20T09:45:14;26.10;99.90
2955;DHT22;1487;51.470;6.938;2022-08-20T09:47:42;26.60;99.90
2955;DHT22;1487;51.470;6.938;2022-08-20T09:50:09;26.40;99.90
2955;DHT22;1487;51.470;6.938;2022-08-20T09:52:40;26.20;99.90
2955;DHT22;1487;51.470;6.938;2022-08-20T09:55:16;26.60;99.90
2955;DHT22;1487;51.470;6.938;2022-08-20T09:57:44;26.60;99.90
2955;DHT22;1487;51.470;6.938;2022-08-20T10:00:11;26.50;99.90
2955;DHT22;1487;51.470;6.938;2022-08-20T10:02:39;27.50;99.90
2955;DHT22;1487;51.470;6.938;2022-08-20T10:05:08;28.00;99.90
2955;DHT22;1487;51.470;6.938;2022-08-20T10:07:37;28.00;99.90
2955;DHT22;1487;51.470;6.938;2022-08-20T10:10:05;27.90;99.90
2955;DHT22;1487;51.470;6.938;2022-08-20T10:12:33;27.30;99.90
2955;DHT22;1487;51.470;6.938;2022-08-20T10:15:00;26.20;99.90
2955;DHT22;1487;51.470;6.938;2022-08-20T10:17:26;26.20;99.90
2955;DHT22;1487;51.470;6.938;2022-08-20T10:19:53;27.50;99.90
2955;DHT22;1487;51.470;6.938;2022-08-20T10:22:21;28.30;99.90
2955;DHT22;1487;51.470;6.938;2022-08-20T10:24:49;28.60;99.90
2955;DHT22;1487;51.470;6.938;2022-08-20T10:27:15;28.30;99.90
2955;DHT22;1487;51.470;6.938;2022-08-20T10:29:42;27.10;99.90
2955;DHT22;1487;51.470;6.938;2022-08-20T10:32:11;26.80;99.90
2955;DHT22;1487;51.470;6.938;2022-08-20T10:34:39;26.20;99.90
2955;DHT22;1487;51.470;6.938;2022-08-20T10:37:06;26.10;99.90
2955;DHT22;1487;51.470;6.938;2022-08-20T10:39:34;27.20;99.90
2955;DHT22;1487;51.470;6.938;2022-08-20T10:42:01;28.60;99.90
2955;DHT22;1487;51.470;6.938;2022-08-20T10:44:28;28.90;99.90
2955;DHT22;1487;51.470;6.938;2022-08-20T10:46:55;28.90;99.90
2955;DHT22;1487;51.470;6.938;2022-08-20T10:49:21;29.70;99.90
2955;DHT22;1487;51.470;6.938;2022-08-20T10:51:48;30.00;99.90
2955;DHT22;1487;51.470;6.938;2022-08-20T10:54:15;29.40;99.90
2955;DHT22;1487;51.470;6.938;2022-08-20T10:56:43;29.00;99.90
2955;DHT22;1487;51.470;6.938;2022-08-20T10:59:10;30.10;99.90
2955;DHT22;1487;51.470;6.938;2022-08-20T11:01:37;31.10;99.90
2955;DHT22;1487;51.470;6.938;2022-08-20T11:04:04;30.50;99.90
2955;DHT22;1487;51.470;6.938;2022-08-20T11:06:31;29.40;99.90
2955;DHT22;1487;51.470;6.938;2022-08-20T11:08:57;28.10;99.90
2955;DHT22;1487;51.470;6.938;2022-08-20T11:11:24;28.40;99.90
2955;DHT22;1487;51.470;6.938;2022-08-20T11:13:52;28.40;99.90
2955;DHT22;1487;51.470;6.938;2022-08-20T11:16:19;28.90;99.90
2955;DHT22;1487;51.470;6.938;2022-08-20T11:18:46;28.50;99.90
2955;DHT22;1487;51.470;6.938;2022-08-20T11:21:13;28.50;99.90
2955;DHT22;1487;51.470;6.938;2022-08-20T11:23:39;28.10;99.90
2955;DHT22;1487;51.470;6.938;2022-08-20T11:26:06;27.70;99.90
2955;DHT22;1487;51.470;6.938;2022-08-20T11:28:34;28.20;99.90
2955;DHT22;1487;51.470;6.938;2022-08-20T11:31:02;29.10;99.90
2955;DHT22;1487;51.470;6.938;2022-08-20T11:33:29;30.20;99.90
2955;DHT22;1487;51.470;6.938;2022-08-20T11:35:55;30.70;98.40
2955;DHT22;1487;51.470;6.938;2022-08-20T11:38:22;30.60;96.80
2955;DHT22;1487;51.470;6.938;2022-08-20T11:40:49;30.60;95.30
2955;DHT22;1487;51.470;6.938;2022-08-20T11:43:16;30.50;97.50
2955;DHT22;1487;51.470;6.938;2022-08-20T11:45:44;30.60;95.30
2955;DHT22;1487;51.470;6.938;2022-08-20T11:48:12;30.20;95.60
2955;DHT22;1487;51.470;6.938;2022-08-20T11:50:40;30.10;93.90
2955;DHT22;1487;51.470;6.938;2022-08-20T11:53:07;30.00;92.10
2955;DHT22;1487;51.470;6.938;2022-08-20T11:55:34;29.80;93.10
2955;DHT22;1487;51.470;6.938;2022-08-20T11:58:02;30.00;91.70
2955;DHT22;1487;51.470;6.938;2022-08-20T12:00:30;29.70;92.60
2955;DHT22;1487;51.470;6.938;2022-08-20T12:02:57;30.00;92.90
2955;DHT22;1487;51.470;6.938;2022-08-20T12:05:25;30.40;92.10
2955;DHT22;1487;51.470;6.938;2022-08-20T12:07:53;30.20;92.30
2955;DHT22;1487;51.470;6.938;2022-08-20T12:10:20;30.00;94.80
2955;DHT22;1487;51.470;6.938;2022-08-20T12:12:48;30.00;92.90
2955;DHT22;1487;51.470;6.938;2022-08-20T12:15:16;30.10;92.90
2955;DHT22;1487;51.470;6.938;2022-08-20T12:17:42;29.80;93.70
2955;DHT22;1487;51.470;6.938;2022-08-20T12:20:11;30.40;93.90
2955;DHT22;1487;51.470;6.938;2022-08-20T12:22:40;30.50;89.90
2955;DHT22;1487;51.470;6.938;2022-08-20T12:25:08;30.70;89.70
2955;DHT22;1487;51.470;6.938;2022-08-20T12:27:37;31.50;90.00
2955;DHT22;1487;51.470;6.938;2022-08-20T12:30:07;32.10;84.90
2955;DHT22;1487;51.470;6.938;2022-08-20T12:32:34;32.50;84.20
2955;DHT22;1487;51.470;6.938;2022-08-20T12:35:01;32.00;82.70
2955;DHT22;1487;51.470;6.938;2022-08-20T12:37:29;32.20;81.00
2955;DHT22;1487;51.470;6.938;2022-08-20T12:39:59;32.00;81.70
2955;DHT22;1487;51.470;6.938;2022-08-20T12:42:27;31.50;82.40
2955;DHT22;1487;51.470;6.938;2022-08-20T12:44:54;31.70;84.30
2955;DHT22;1487;51.470;6.938;2022-08-20T12:47:23;31.80;82.40
2955;DHT22;1487;51.470;6.938;2022-08-20T12:49:52;31.70;80.50
2955;DHT22;1487;51.470;6.938;2022-08-20T12:52:21;31.10;80.60
2955;DHT22;1487;51.470;6.938;2022-08-20T12:54:48;30.60;81.80
2955;DHT22;1487;51.470;6.938;2022-08-20T12:57:23;29.50;89.60
2955;DHT22;1487;51.470;6.938;2022-08-20T12:59:50;28.60;89.70
2955;DHT22;1487;51.470;6.938;2022-08-20T13:02:17;28.20;90.80
2955;DHT22;1487;51.470;6.938;2022-08-20T13:04:44;27.60;92.30
2955;DHT22;1487;51.470;6.938;2022-08-20T13:07:12;26.90;93.90
2955;DHT22;1487;51.470;6.938;2022-08-20T13:09:39;26.70;95.80
2955;DHT22;1487;51.470;6.938;2022-08-20T13:12:07;26.30;98.70
2955;DHT22;1487;51.470;6.938;2022-08-20T13:14:36;25.90;99.90
2955;DHT22;1487;51.470;6.938;2022-08-20T13:17:03;25.60;99.90
2955;DHT22;1487;51.470;6.938;2022-08-20T13:19:33;25.50;99.90
2955;DHT22;1487;51.470;6.938;2022-08-20T13:22:01;25.40;99.90
2955;DHT22;1487;51.470;6.938;2022-08-20T13:24:28;25.60;99.90
2955;DHT22;1487;51.470;6.938;2022-08-20T13:27:03;26.10;99.90
2955;DHT22;1487;51.470;6.938;2022-08-20T13:29:30;26.60;99.90
2955;DHT22;1487;51.470;6.938;2022-08-20T13:31:58;27.10;99.90
2955;DHT22;1487;51.470;6.938;2022-08-20T13:34:25;27.80;95.80
2955;DHT22;1487;51.470;6.938;2022-08-20T13:36:52;28.00;94.50
2955;DHT22;1487;51.470;6.938;2022-08-20T13:39:21;28.70;93.50
2955;DHT22;1487;51.470;6.938;2022-08-20T13:41:49;29.30;90.70
2955;DHT22;1487;51.470;6.938;2022-08-20T13:44:16;29.70;90.30
2955;DHT22;1487;51.470;6.938;2022-08-20T13:46:42;30.50;88.30
2955;DHT22;1487;51.470;6.938;2022-08-20T13:49:10;31.00;81.10
2955;DHT22;1487;51.470;6.938;2022-08-20T13:51:37;31.40;82.10
2955;DHT22;1487;51.470;6.938;2022-08-20T13:54:04;31.30;79.00
2955;DHT22;1487;51.470;6.938;2022-08-20T13:56:31;31.40;79.90
2955;DHT22;1487;51.470;6.938;2022-08-20T13:58:58;31.00;78.80
2955;DHT22;1487;51.470;6.938;2022-08-20T14:01:24;30.00;78.50
2955;DHT22;1487;51.470;6.938;2022-08-20T14:03:52;29.10;82.00
2955;DHT22;1487;51.470;6.938;2022-08-20T14:06:20;28.30;84.90
2955;DHT22;1487;51.470;6.938;2022-08-20T14:08:46;27.60;89.70
2955;DHT22;1487;51.470;6.938;2022-08-20T14:11:13;27.00;91.70
2955;DHT22;1487;51.470;6.938;2022-08-20T14:13:40;26.80;99.40
2955;DHT22;1487;51.470;6.938;2022-08-20T14:16:07;26.70;99.90
2955;DHT22;1487;51.470;6.938;2022-08-20T14:18:34;26.70;99.90
2955;DHT22;1487;51.470;6.938;2022-08-20T14:21:00;26.60;99.90
2955;DHT22;1487;51.470;6.938;2022-08-20T14:23:29;26.60;99.90
2955;DHT22;1487;51.470;6.938;2022-08-20T14:25:55;26.90;99.90
2955;DHT22;1487;51.470;6.938;2022-08-20T14:28:23;27.10;99.90
2955;DHT22;1487;51.470;6.938;2022-08-20T14:30:50;27.40;99.90
2955;DHT22;1487;51.470;6.938;2022-08-20T14:33:17;27.60;99.50
2955;DHT22;1487;51.470;6.938;2022-08-20T14:35:44;28.30;95.00
2955;DHT22;1487;51.470;6.938;2022-08-20T14:38:11;28.90;90.90
2955;DHT22;1487;51.470;6.938;2022-08-20T14:40:39;29.50;87.30
2955;DHT22;1487;51.470;6.938;2022-08-20T14:43:06;30.30;85.60
2955;DHT22;1487;51.470;6.938;2022-08-20T14:45:33;30.50;81.10
2955;DHT22;1487;51.470;6.938;2022-08-20T14:47:59;30.10;80.60
2955;DHT22;1487;51.470;6.938;2022-08-20T14:50:28;29.80;79.90
2955;DHT22;1487;51.470;6.938;2022-08-20T14:52:56;29.50;80.20
2955;DHT22;1487;51.470;6.938;2022-08-20T14:55:26;29.20;82.70
2955;DHT22;1487;51.470;6.938;2022-08-20T14:57:55;28.80;82.90
2955;DHT22;1487;51.470;6.938;2022-08-20T15:00:24;28.00;84.30
2955;DHT22;1487;51.470;6.938;2022-08-20T15:02:51;27.80;84.80
2955;DHT22;1487;51.470;6.938;2022-08-20T15:05:18;27.50;88.50
2955;DHT22;1487;51.470;6.938;2022-08-20T15:07:47;27.40;89.50
2955;DHT22;1487;51.470;6.938;2022-08-20T15:10:16;27.70;90.10
2955;DHT22;1487;51.470;6.938;2022-08-20T15:12:44;27.70;90.50
2955;DHT22;1487;51.470;6.938;2022-08-20T15:15:14;27.50;91.50
2955;DHT22;1487;51.470;6.938;2022-08-20T15:17:43;27.30;90.20
2955;DHT22;1487;51.470;6.938;2022-08-20T15:20:12;27.10;91.60
2955;DHT22;1487;51.470;6.938;2022-08-20T15:22:40;27.20;91.90
2955;DHT22;1487;51.470;6.938;2022-08-20T15:25:10;27.30;89.10
2955;DHT22;1487;51.470;6.938;2022-08-20T15:27:37;27.80;88.70
2955;DHT22;1487;51.470;6.938;2022-08-20T15:30:07;28.00;89.10
2955;DHT22;1487;51.470;6.938;2022-08-20T15:32:35;28.20;84.60
2955;DHT22;1487;51.470;6.938;2022-08-20T15:35:03;28.30;84.30
2955;DHT22;1487;51.470;6.938;2022-08-20T15:37:30;28.30;80.80
2955;DHT22;1487;51.470;6.938;2022-08-20T15:39:56;28.30;82.10
2955;DHT22;1487;51.470;6.938;2022-08-20T15:42:27;28.20;83.50
2955;DHT22;1487;51.470;6.938;2022-08-20T15:44:54;28.10;82.00
2955;DHT22;1487;51.470;6.938;2022-08-20T15:47:25;27.70;79.60
2955;DHT22;1487;51.470;6.938;2022-08-20T15:49:59;27.50;80.20
2955;DHT22;1487;51.470;6.938;2022-08-20T15:52:30;27.30;81.90
2955;DHT22;1487;51.470;6.938;2022-08-20T15:54:59;26.90;85.00
2955;DHT22;1487;51.470;6.938;2022-08-20T15:57:40;26.80;84.30
2955;DHT22;1487;51.470;6.938;2022-08-20T16:00:14;26.70;85.40
2955;DHT22;1487;51.470;6.938;2022-08-20T16:06:02;26.60;81.10
2955;DHT22;1487;51.470;6.938;2022-08-20T16:08:42;26.50;82.90
2955;DHT22;1487;51.470;6.938;2022-08-20T16:11:20;26.50;81.00
2955;DHT22;1487;51.470;6.938;2022-08-20T16:13:50;26.50;83.50